createdAt,value
2018-09-26T00:03:01.956Z,39.3
2018-09-26T00:07:58.926Z,39.3
2018-09-26T00:12:55.681Z,39.4
2018-09-26T00:17:52.939Z,39.4
2018-09-26T00:22:49.878Z,39.5
2018-09-26T00:27:46.839Z,39.5
2018-09-26T00:32:43.766Z,39.6
2018-09-26T00:37:40.841Z,39.7
2018-09-26T00:42:37.765Z,39.7
2018-09-26T00:47:34.863Z,39.8
2018-09-26T00:52:31.814Z,39.9
2018-09-26T00:57:28.590Z,39.9
2018-09-26T01:02:25.590Z,39.9
2018-09-26T01:07:22.465Z,39.9
2018-09-26T01:12:18.823Z,40
2018-09-26T01:17:15.923Z,40.1
2018-09-26T01:22:13.081Z,40.1
2018-09-26T01:27:10.054Z,40.2
2018-09-26T01:32:07.059Z,40.3
2018-09-26T01:37:03.941Z,40.3
2018-09-26T01:42:00.917Z,40.2
2018-09-26T01:46:57.642Z,40.3
2018-09-26T01:51:54.704Z,40.4
2018-09-26T01:56:51.875Z,40.4
2018-09-26T02:01:48.956Z,40.5
2018-09-26T02:06:46.173Z,40.5
2018-09-26T02:11:43.021Z,40.7
2018-09-26T02:16:40.031Z,40.6
2018-09-26T02:21:36.875Z,40.6
2018-09-26T02:26:33.978Z,40.7
2018-09-26T02:31:31.085Z,40.7
2018-09-26T02:36:28.254Z,40.8
2018-09-26T02:41:24.907Z,40.9
2018-09-26T02:46:21.951Z,40.9
2018-09-26T02:51:18.907Z,40.9
2018-09-26T02:56:15.874Z,41.1
2018-09-26T03:01:12.791Z,41
2018-09-26T03:06:09.430Z,41.1
2018-09-26T03:11:06.416Z,41.2
2018-09-26T03:16:03.292Z,41.1
2018-09-26T03:21:00.131Z,41.1
2018-09-26T03:25:56.922Z,41.3
2018-09-26T03:30:53.723Z,41.4
2018-09-26T03:35:50.713Z,41.4
2018-09-26T03:40:47.630Z,41.5
2018-09-26T03:45:44.536Z,41.5
2018-09-26T03:50:41.455Z,41.6
2018-09-26T03:55:38.582Z,41.6
2018-09-26T04:00:35.497Z,41.6
2018-09-26T04:05:32.349Z,41.7
2018-09-26T04:10:29.315Z,41.7
2018-09-26T04:15:26.496Z,41.7
2018-09-26T04:20:23.544Z,41.8
2018-09-26T04:25:20.723Z,41.8
2018-09-26T04:30:17.883Z,41.9
2018-09-26T04:35:14.941Z,42
2018-09-26T04:40:12.037Z,42
2018-09-26T04:45:09.037Z,42.1
2018-09-26T04:50:05.988Z,42.1
2018-09-26T04:55:02.924Z,42.2
2018-09-26T04:59:59.965Z,42.2
2018-09-26T05:04:57.007Z,42.4
2018-09-26T05:09:54.052Z,42.5
2018-09-26T05:14:51.314Z,42.4
2018-09-26T05:19:48.463Z,42.5
2018-09-26T05:24:45.486Z,42.5
2018-09-26T05:29:42.483Z,42.6
2018-09-26T05:34:39.614Z,42.6
2018-09-26T05:39:36.721Z,42.7
2018-09-26T05:44:33.907Z,42.7
2018-09-26T05:49:31.002Z,42.8
2018-09-26T05:54:28.170Z,42.8
2018-09-26T05:59:25.320Z,43
2018-09-26T06:04:22.296Z,43
2018-09-26T06:09:19.482Z,42.8
2018-09-26T06:14:16.503Z,43
2018-09-26T06:19:13.549Z,43.1
2018-09-26T06:24:10.517Z,43.1
2018-09-26T06:29:07.545Z,43.2
2018-09-26T06:34:04.535Z,43.2
2018-09-26T06:39:01.694Z,43.2
2018-09-26T06:43:58.297Z,43.2
2018-09-26T06:48:55.079Z,43.2
2018-09-26T06:53:52.166Z,43.3
2018-09-26T06:58:49.201Z,43.3
2018-09-26T07:03:46.445Z,43.5
2018-09-26T07:08:43.353Z,43.8
2018-09-26T07:13:40.525Z,43.8
2018-09-26T07:18:37.489Z,44
2018-09-26T07:23:34.590Z,44.1
2018-09-26T07:28:31.525Z,44
2018-09-26T07:33:28.551Z,43.9
2018-09-26T07:38:25.783Z,43.9
2018-09-26T07:43:23.052Z,43.9
2018-09-26T07:48:20.185Z,44
2018-09-26T07:53:17.332Z,44.1
2018-09-26T07:58:14.540Z,44.1
2018-09-26T08:03:12.282Z,43.9
2018-09-26T08:08:09.259Z,43.9
2018-09-26T08:13:06.341Z,43.9
2018-09-26T08:18:03.440Z,44
2018-09-26T08:23:00.054Z,43.7
2018-09-26T08:27:56.891Z,43.6
2018-09-26T08:32:54.000Z,43.5
2018-09-26T08:37:51.088Z,43.3
2018-09-26T08:42:48.280Z,43.2
2018-09-26T08:47:45.514Z,43
2018-09-26T08:52:42.538Z,42.9
2018-09-26T08:57:39.585Z,42.9
2018-09-26T09:02:36.786Z,42.9
2018-09-26T09:07:34.000Z,42.9
2018-09-26T09:12:31.190Z,42.9
2018-09-26T09:17:28.263Z,42.9
2018-09-26T09:22:25.458Z,42.9
2018-09-26T09:27:22.489Z,42.9
2018-09-26T09:32:19.886Z,42.8
2018-09-26T09:37:17.505Z,42.8
2018-09-26T09:42:14.613Z,42.7
2018-09-26T09:47:11.583Z,42.3
2018-09-26T09:52:08.919Z,41.9
2018-09-26T09:57:06.121Z,41.6
2018-09-26T10:02:03.192Z,41.3
2018-09-26T10:07:00.514Z,41.4
2018-09-26T10:11:57.803Z,41.5
2018-09-26T10:16:55.038Z,41.6
2018-09-26T10:21:52.266Z,41.7
2018-09-26T10:26:49.345Z,41.7
2018-09-26T10:31:46.500Z,41.7
2018-09-26T10:36:43.911Z,41.7
2018-09-26T10:41:40.901Z,41.7
2018-09-26T10:46:38.312Z,41.7
2018-09-26T10:51:35.521Z,41.7
2018-09-26T10:56:33.293Z,41.7
2018-09-26T11:01:30.180Z,41.7
2018-09-26T11:06:27.419Z,41.6
2018-09-26T11:11:24.652Z,41.6
2018-09-26T11:16:21.807Z,41.5
2018-09-26T11:21:19.122Z,41.4
2018-09-26T11:26:16.300Z,41.3
2018-09-26T11:31:13.479Z,41
2018-09-26T11:36:10.625Z,40.7
2018-09-26T11:41:07.947Z,40.6
2018-09-26T11:46:04.615Z,40.6
2018-09-26T11:51:01.708Z,40.5
2018-09-26T11:55:59.072Z,40.5
2018-09-26T12:00:56.492Z,40.4
2018-09-26T12:05:53.650Z,40.3
2018-09-26T12:10:51.278Z,40.3
2018-09-26T12:15:48.559Z,40.3
2018-09-26T12:20:45.768Z,40
2018-09-26T12:25:42.889Z,40.1
2018-09-26T12:30:39.778Z,40.2
2018-09-26T12:35:36.795Z,40.2
2018-09-26T12:40:33.965Z,40.4
2018-09-26T12:45:31.563Z,40.1
2018-09-26T12:50:28.233Z,40.2
2018-09-26T12:55:25.464Z,40.2
2018-09-26T13:00:23.678Z,40.2
2018-09-26T13:05:20.774Z,40.3
2018-09-26T13:10:19.237Z,40.4
2018-09-26T13:15:16.009Z,40.3
2018-09-26T13:20:12.953Z,40.3
2018-09-26T13:25:10.101Z,40.2
2018-09-26T13:30:07.354Z,40.1
2018-09-26T13:35:04.559Z,39.7
2018-09-26T13:40:01.654Z,39.8
2018-09-26T13:44:58.665Z,39.9
2018-09-26T13:49:55.903Z,39.9
2018-09-26T13:54:53.208Z,39.9
2018-09-26T13:59:50.532Z,39.8
2018-09-26T14:04:47.435Z,39.9
2018-09-26T14:09:44.577Z,40
2018-09-26T14:14:41.786Z,40
2018-09-26T14:19:38.929Z,39.9
2018-09-26T14:24:36.131Z,39.9
2018-09-26T14:29:33.327Z,39.9
2018-09-26T14:34:30.550Z,39.9
2018-09-26T14:39:28.167Z,39.9
2018-09-26T14:44:25.974Z,39.9
2018-09-26T14:49:23.193Z,39.9
2018-09-26T14:54:20.074Z,39.9
2018-09-26T14:59:17.425Z,39.9
2018-09-26T15:04:14.911Z,40
2018-09-26T15:09:12.110Z,39.9
2018-09-26T15:14:09.338Z,39.9
2018-09-26T15:19:06.405Z,40
2018-09-26T15:24:03.584Z,40
2018-09-26T15:29:01.409Z,39.9
2018-09-26T15:33:58.260Z,39.9
2018-09-26T15:38:55.428Z,39.9
2018-09-26T15:43:52.686Z,39.9
2018-09-26T15:48:49.838Z,39.9
2018-09-26T15:53:47.231Z,39.9
2018-09-26T15:58:44.459Z,39.8
2018-09-26T16:03:41.554Z,39.8
2018-09-26T16:08:38.628Z,39.7
2018-09-26T16:13:35.732Z,39.8
2018-09-26T16:18:32.991Z,39.6
2018-09-26T16:23:30.198Z,39.5
2018-09-26T16:28:27.602Z,39.6
2018-09-26T16:33:24.849Z,39.5
2018-09-26T16:38:22.294Z,39.4
2018-09-26T16:43:19.413Z,39.3
2018-09-26T16:48:16.722Z,39.3
2018-09-26T16:53:13.767Z,39.2
2018-09-26T16:58:10.972Z,39.2
2018-09-26T17:03:07.955Z,39.2
2018-09-26T17:08:05.378Z,39.3
2018-09-26T17:13:02.411Z,39.1
2018-09-26T17:17:59.672Z,39.1
2018-09-26T17:22:57.168Z,39.1
2018-09-26T17:27:54.197Z,39.1
2018-09-26T17:32:51.369Z,39
2018-09-26T17:37:48.765Z,39.1
2018-09-26T17:42:46.199Z,39
2018-09-26T17:47:43.274Z,39.1
2018-09-26T17:52:40.001Z,39.1
2018-09-26T17:57:37.271Z,39.2
2018-09-26T18:02:34.424Z,39.2
2018-09-26T18:07:31.425Z,39.2
2018-09-26T18:12:28.438Z,39.2
2018-09-26T18:17:25.926Z,39.2
2018-09-26T18:22:22.896Z,39.2
2018-09-26T18:27:20.035Z,39.1
2018-09-26T18:32:17.130Z,39.1
2018-09-26T18:37:14.327Z,39.2
2018-09-26T18:42:11.508Z,39.1
2018-09-26T18:47:08.721Z,39.2
2018-09-26T18:52:06.018Z,39.2
2018-09-26T18:57:03.277Z,39.2
2018-09-26T19:02:00.208Z,39.2
2018-09-26T19:06:57.508Z,39.2
2018-09-26T19:11:54.202Z,39.2
2018-09-26T19:16:51.417Z,39.3
2018-09-26T19:21:48.641Z,39.3
2018-09-26T19:26:45.862Z,39.3
2018-09-26T19:31:43.183Z,39.3
2018-09-26T19:36:40.138Z,39.3
2018-09-26T19:41:37.525Z,39.3
2018-09-26T19:46:34.187Z,39.3
2018-09-26T19:51:31.633Z,39.3
2018-09-26T19:56:28.889Z,39.3
2018-09-26T20:01:26.021Z,39.3
2018-09-26T20:06:23.085Z,39.3
2018-09-26T20:11:20.270Z,39.3
2018-09-26T20:16:17.620Z,39.3
2018-09-26T20:21:14.763Z,39.3
2018-09-26T20:26:12.027Z,39.3
2018-09-26T20:31:09.239Z,39.3
2018-09-26T20:36:06.475Z,39.3
2018-09-26T20:41:03.689Z,39.3
2018-09-26T20:46:00.963Z,39.3
2018-09-26T20:50:58.275Z,39.3
2018-09-26T20:55:55.202Z,39.4
2018-09-26T21:00:52.585Z,39.4
2018-09-26T21:05:49.749Z,39.3
2018-09-26T21:10:46.864Z,39.4
2018-09-26T21:15:43.370Z,39.4
2018-09-26T21:20:40.638Z,39.4
2018-09-26T21:25:37.671Z,39.4
2018-09-26T21:30:34.908Z,39.4
2018-09-26T21:35:32.108Z,39.4
2018-09-26T21:40:29.369Z,39.4
2018-09-26T21:45:26.014Z,39.4
2018-09-26T21:50:23.144Z,39.5
2018-09-26T21:55:19.772Z,39.5
2018-09-26T22:00:17.151Z,39.5
2018-09-26T22:05:14.261Z,39.5
2018-09-26T22:10:11.605Z,39.5
2018-09-26T22:15:08.455Z,39.5
2018-09-26T22:20:05.680Z,39.5
2018-09-26T22:25:02.846Z,39.5
2018-09-26T22:29:59.893Z,39.5
2018-09-26T22:34:57.183Z,39.5
2018-09-26T22:39:54.301Z,39.6
2018-09-26T22:44:51.142Z,39.6
2018-09-26T22:49:48.132Z,39.6
2018-09-26T22:54:45.186Z,39.6
2018-09-26T22:59:42.378Z,39.6
2018-09-26T23:04:39.629Z,39.6
2018-09-26T23:09:36.920Z,39.6
2018-09-26T23:14:34.247Z,39.6
2018-09-26T23:19:31.335Z,39.6
2018-09-26T23:24:28.581Z,39.6
2018-09-26T23:29:25.757Z,39.6
2018-09-26T23:34:22.814Z,39.6
2018-09-26T23:39:19.751Z,39.6
2018-09-26T23:44:16.939Z,39.6
2018-09-26T23:49:14.081Z,39.6
2018-09-26T23:54:10.800Z,39.6
2018-09-26T23:59:07.648Z,39.7
